Time;durP1;ratioP1;P1;durP2;ratioP2;P2;SDS_P1;SDS_P2;PMS_P1;PMS_P2;Temp;Humidity;BMP_temperature;BMP_pressure;BME280_temperature;BME280_humidity;BME280_pressure;Samples;Min_cycle;Max_cycle;Signal;HPM_P1;HPM_P2
2022/07/04 00:00:23;;;;;;;8.55;1.88;;;14.70;99.90;;;;;;5045349;28;20036;-67
2022/07/04 00:02:50;;;;;;;4.85;1.83;;;14.60;99.90;;;;;;5077890;28;20030;-67
2022/07/04 00:05:17;;;;;;;5.40;1.70;;;14.60;99.90;;;;;;5060852;28;20101;-66
2022/07/04 00:07:45;;;;;;;5.55;1.48;;;14.50;99.90;;;;;;5045695;28;20029;-67
2022/07/04 00:10:13;;;;;;;6.53;1.65;;;14.60;99.90;;;;;;5045592;28;20025;-67
2022/07/04 00:12:40;;;;;;;8.82;1.80;;;14.60;99.90;;;;;;5075934;28;20028;-67
2022/07/04 00:15:07;;;;;;;6.18;2.97;;;14.60;99.90;;;;;;5060556;28;20031;-67
2022/07/04 00:17:33;;;;;;;5.43;1.42;;;14.50;99.90;;;;;;5060782;28;20030;-67
2022/07/04 00:19:59;;;;;;;6.47;1.63;;;14.40;99.90;;;;;;5077767;28;20029;-66
2022/07/04 00:22:24;;;;;;;3.78;1.10;;;14.40;99.90;;;;;;5077611;28;20025;-68
2022/07/04 00:24:50;;;;;;;3.63;1.20;;;14.30;99.90;;;;;;5044783;28;20021;-67
2022/07/04 00:27:16;;;;;;;2.20;1.20;;;14.30;99.90;;;;;;5044039;28;20021;-67
2022/07/04 00:29:42;;;;;;;4.10;1.45;;;14.20;99.90;;;;;;5045375;28;20351;-66
2022/07/04 00:32:08;;;;;;;10.48;1.70;;;14.20;99.90;;;;;;5045170;28;20051;-67
2022/07/04 00:34:34;;;;;;;4.35;1.67;;;14.20;99.90;;;;;;5044421;28;20059;-67
2022/07/04 00:36:59;;;;;;;5.35;1.60;;;14.20;99.90;;;;;;5044886;28;20033;-67
2022/07/04 00:39:25;;;;;;;6.60;1.42;;;14.20;99.90;;;;;;5044943;28;20040;-67
2022/07/04 00:41:51;;;;;;;4.22;1.40;;;14.20;99.90;;;;;;5044983;28;20240;-67
2022/07/04 00:44:17;;;;;;;3.50;1.30;;;14.20;99.90;;;;;;5044860;28;20021;-68
2022/07/04 00:46:44;;;;;;;5.78;1.40;;;14.20;99.90;;;;;;5043285;28;20021;-67
2022/07/04 00:49:12;;;;;;;5.43;1.45;;;14.10;99.90;;;;;;5044979;28;20300;-68
2022/07/04 00:51:38;;;;;;;4.90;1.65;;;14.10;99.90;;;;;;5043817;28;20083;-67
2022/07/04 00:54:06;;;;;;;3.97;1.30;;;14.10;99.90;;;;;;5043397;28;20041;-69
2022/07/04 00:56:32;;;;;;;5.88;1.80;;;14.10;99.90;;;;;;5044062;28;20036;-67
2022/07/04 00:58:59;;;;;;;2.97;1.17;;;14.00;99.90;;;;;;5045366;28;20304;-68
2022/07/04 01:01:25;;;;;;;4.25;1.60;;;14.00;99.90;;;;;;5047102;28;20013;-67
2022/07/04 01:03:51;;;;;;;5.05;1.40;;;14.00;99.90;;;;;;5052644;28;20029;-66
2022/07/04 01:06:19;;;;;;;2.90;1.13;;;14.00;99.90;;;;;;5052851;28;20052;-68
2022/07/04 01:08:46;;;;;;;4.63;1.40;;;14.00;99.90;;;;;;5051772;28;20025;-66
2022/07/04 01:11:12;;;;;;;5.18;1.27;;;13.90;99.90;;;;;;5050776;28;20028;-67
2022/07/04 01:13:40;;;;;;;3.92;1.50;;;13.90;99.90;;;;;;5049013;28;20049;-68
2022/07/04 01:16:06;;;;;;;4.53;1.30;;;13.90;99.90;;;;;;5047072;28;20048;-67
2022/07/04 01:18:32;;;;;;;7.60;1.40;;;13.80;99.90;;;;;;5046991;28;20248;-67
2022/07/04 01:20:58;;;;;;;3.22;1.25;;;13.70;99.90;;;;;;5045652;28;20036;-66
2022/07/04 01:23:23;;;;;;;6.10;1.20;;;13.80;99.90;;;;;;5043162;28;20040;-66
2022/07/04 01:25:50;;;;;;;3.88;1.40;;;13.80;99.90;;;;;;5042952;28;20033;-68
2022/07/04 01:28:19;;;;;;;3.17;1.10;;;13.80;99.90;;;;;;5044354;28;20023;-67
2022/07/04 01:30:45;;;;;;;3.08;1.27;;;13.80;99.90;;;;;;5043071;28;20064;-66
2022/07/04 01:33:11;;;;;;;4.82;1.33;;;13.70;99.90;;;;;;5044099;28;20022;-67
2022/07/04 01:35:36;;;;;;;2.63;1.45;;;13.70;99.90;;;;;;5043683;28;20029;-67
2022/07/04 01:38:02;;;;;;;3.97;1.65;;;13.70;99.90;;;;;;5043961;28;20067;-66
2022/07/04 01:40:28;;;;;;;6.95;1.60;;;13.70;99.90;;;;;;5044093;28;20056;-67
2022/07/04 01:42:54;;;;;;;7.90;1.55;;;13.70;99.90;;;;;;5042797;28;20296;-68
2022/07/04 01:45:19;;;;;;;6.13;1.33;;;13.70;99.90;;;;;;5075842;28;20025;-67
2022/07/04 01:47:45;;;;;;;9.48;2.22;;;13.70;99.90;;;;;;5043503;28;20269;-67
2022/07/04 01:50:12;;;;;;;8.27;1.80;;;13.60;99.90;;;;;;5043914;28;20052;-67
2022/07/04 01:52:39;;;;;;;4.63;1.40;;;13.60;99.90;;;;;;5043765;28;20045;-67
2022/07/04 01:55:05;;;;;;;3.50;1.27;;;13.60;99.90;;;;;;5075345;28;20105;-68
2022/07/04 01:57:31;;;;;;;3.80;1.70;;;13.70;99.90;;;;;;5042637;28;20060;-66
2022/07/04 02:02:42;;;;;;;7.22;1.90;;;13.70;99.90;;;;;;5056636;28;20021;-68
2022/07/04 02:05:08;;;;;;;3.17;1.80;;;13.70;99.90;;;;;;5043481;28;20033;-66
2022/07/04 02:07:34;;;;;;;3.50;1.50;;;13.70;99.90;;;;;;5075791;28;20300;-67
2022/07/04 02:10:00;;;;;;;2.88;1.50;;;13.70;99.90;;;;;;5075880;28;20304;-67
2022/07/04 02:15:11;;;;;;;4.03;1.35;;;13.80;99.90;;;;;;5042462;28;20083;-67
2022/07/04 02:17:36;;;;;;;3.58;1.77;;;13.70;99.90;;;;;;5043488;28;20080;-66
2022/07/04 02:20:04;;;;;;;5.35;1.38;;;13.70;99.90;;;;;;5043562;28;20088;-66
2022/07/04 02:22:30;;;;;;;5.88;1.67;;;13.60;99.90;;;;;;5043604;28;20081;-67
2022/07/04 02:24:56;;;;;;;9.90;1.40;;;13.70;99.90;;;;;;5062356;28;20060;-67
2022/07/04 02:27:22;;;;;;;3.88;1.30;;;13.70;99.90;;;;;;5079547;28;20017;-67
2022/07/04 02:29:48;;;;;;;6.80;1.60;;;13.60;99.90;;;;;;5079616;28;20040;-67
2022/07/04 02:32:14;;;;;;;7.93;1.75;;;13.60;99.90;;;;;;5046214;28;20029;-66
2022/07/04 02:34:40;;;;;;;5.35;1.30;;;13.60;99.90;;;;;;5047359;28;20033;-67
2022/07/04 02:37:06;;;;;;;3.83;1.40;;;13.60;99.90;;;;;;5046995;28;20304;-66
2022/07/04 02:39:31;;;;;;;4.45;1.25;;;13.60;99.90;;;;;;5047294;28;20017;-68
2022/07/04 02:41:57;;;;;;;4.15;1.00;;;13.60;99.90;;;;;;5047239;28;20033;-67
2022/07/04 02:44:23;;;;;;;2.70;0.90;;;13.60;99.90;;;;;;5047115;28;20085;-68
2022/07/04 02:46:48;;;;;;;3.53;1.00;;;13.60;99.90;;;;;;5046816;28;20029;-67
2022/07/04 02:49:14;;;;;;;3.58;1.20;;;13.50;99.90;;;;;;5046891;28;20029;-66
2022/07/04 02:51:40;;;;;;;5.25;1.10;;;13.60;99.90;;;;;;5045781;28;20041;-66
2022/07/04 02:54:05;;;;;;;4.28;0.85;;;13.60;99.90;;;;;;5045491;28;20029;-66
2022/07/04 02:56:31;;;;;;;3.53;0.90;;;13.60;99.90;;;;;;5046754;28;20216;-67
2022/07/04 02:58:57;;;;;;;7.05;1.00;;;13.60;99.90;;;;;;5047003;28;20036;-67
2022/07/04 03:01:22;;;;;;;3.03;0.80;;;13.50;99.90;;;;;;5046827;28;20021;-65
2022/07/04 03:03:48;;;;;;;3.60;0.90;;;13.50;99.90;;;;;;5046747;28;20305;-67
2022/07/04 03:06:15;;;;;;;3.65;0.90;;;13.40;99.90;;;;;;5046572;28;20336;-67
2022/07/04 03:08:40;;;;;;;4.50;1.15;;;13.40;99.90;;;;;;5046805;28;20040;-66
2022/07/04 03:11:06;;;;;;;1.02;0.70;;;13.40;99.90;;;;;;5046693;28;20018;-66
2022/07/04 03:13:33;;;;;;;3.38;1.20;;;13.30;99.90;;;;;;5044208;28;20096;-68
2022/07/04 03:15:59;;;;;;;5.82;1.77;;;13.40;99.90;;;;;;5045406;28;20029;-67
2022/07/04 03:18:24;;;;;;;6.93;1.70;;;13.30;99.90;;;;;;5046374;28;20053;-67
2022/07/04 03:20:50;;;;;;;4.50;1.88;;;13.30;99.90;;;;;;5028965;28;20021;-66
2022/07/04 03:23:16;;;;;;;6.45;2.25;;;13.30;99.90;;;;;;5045383;28;20032;-66
2022/07/04 03:25:42;;;;;;;5.05;1.90;;;13.40;99.90;;;;;;5044954;28;20371;-67
2022/07/04 03:28:08;;;;;;;2.60;1.83;;;13.40;99.90;;;;;;5046290;28;20033;-67
2022/07/04 03:30:34;;;;;;;5.13;2.05;;;13.40;99.90;;;;;;5046386;28;20017;-68
2022/07/04 03:33:00;;;;;;;5.13;2.70;;;13.40;99.90;;;;;;5045183;28;20075;-66
2022/07/04 03:35:26;;;;;;;4.53;2.08;;;13.40;99.90;;;;;;5045215;28;20199;-66
2022/07/04 03:37:52;;;;;;;7.25;2.28;;;13.50;99.90;;;;;;5078097;28;20036;-66
2022/07/04 03:40:20;;;;;;;5.97;2.63;;;13.50;99.90;;;;;;5044974;28;20105;-67
2022/07/04 03:42:46;;;;;;;7.53;3.15;;;13.40;99.90;;;;;;5078113;28;20036;-66
2022/07/04 03:45:12;;;;;;;7.88;3.05;;;13.40;99.90;;;;;;5045939;28;20021;-68
2022/07/04 03:47:37;;;;;;;8.95;3.38;;;13.50;99.90;;;;;;5045923;28;20029;-67
2022/07/04 03:50:04;;;;;;;8.77;3.45;;;13.50;99.90;;;;;;5061465;28;20017;-67
2022/07/04 03:52:30;;;;;;;10.60;3.95;;;13.50;99.90;;;;;;5078013;28;20064;-68
2022/07/04 03:54:56;;;;;;;6.97;4.13;;;13.50;99.90;;;;;;5077674;28;20029;-67
2022/07/04 03:57:22;;;;;;;11.32;4.15;;;13.60;99.90;;;;;;5045741;28;20030;-66
2022/07/04 03:59:48;;;;;;;9.38;4.22;;;13.60;99.90;;;;;;5044652;28;20025;-66
2022/07/04 04:02:13;;;;;;;7.63;4.40;;;13.60;99.90;;;;;;5045681;28;20061;-67
2022/07/04 04:07:25;;;;;;;8.27;4.32;;;13.70;99.90;;;;;;5044523;28;20342;-67
2022/07/04 04:09:50;;;;;;;10.05;3.90;;;13.70;99.90;;;;;;5077862;28;20029;-67
2022/07/04 04:12:16;;;;;;;12.50;4.20;;;13.70;99.90;;;;;;5044376;28;20032;-68
2022/07/04 04:14:42;;;;;;;10.00;3.53;;;13.70;99.90;;;;;;5044015;28;20029;-66
2022/07/04 04:17:07;;;;;;;6.78;3.90;;;13.70;99.90;;;;;;5045380;28;20085;-66
2022/07/04 04:19:33;;;;;;;8.65;3.33;;;13.80;99.90;;;;;;5045327;28;20185;-68
2022/07/04 04:21:59;;;;;;;7.63;3.60;;;13.90;99.90;;;;;;5045456;28;20190;-66
2022/07/04 04:24:24;;;;;;;8.10;3.60;;;13.90;99.90;;;;;;5043834;28;20272;-67
2022/07/04 04:26:50;;;;;;;10.52;3.42;;;14.00;99.90;;;;;;5045260;28;20189;-66
2022/07/04 04:29:16;;;;;;;10.15;3.72;;;14.10;99.90;;;;;;5044938;28;20036;-67
2022/07/04 04:31:41;;;;;;;11.02;3.80;;;14.10;99.90;;;;;;5045296;28;20021;-67
2022/07/04 04:34:07;;;;;;;8.80;3.92;;;14.20;99.90;;;;;;5045069;28;20022;-68
2022/07/04 04:36:33;;;;;;;11.80;3.42;;;14.30;99.90;;;;;;5043904;28;20088;-67
2022/07/04 04:38:59;;;;;;;7.70;3.13;;;14.40;99.90;;;;;;5044891;28;20119;-67
2022/07/04 04:41:25;;;;;;;6.57;3.00;;;14.60;99.90;;;;;;5044991;28;20087;-67
2022/07/04 04:43:51;;;;;;;6.78;2.90;;;14.80;99.90;;;;;;5043809;28;20033;-67
2022/07/04 04:46:17;;;;;;;11.02;3.35;;;15.10;99.90;;;;;;5044743;28;20018;-66
2022/07/04 04:48:42;;;;;;;9.93;3.22;;;15.40;99.90;;;;;;5044718;28;20097;-67
2022/07/04 04:51:08;;;;;;;7.07;3.00;;;15.60;99.90;;;;;;5044589;28;20216;-67
2022/07/04 04:53:34;;;;;;;5.85;2.92;;;15.70;99.50;;;;;;5043415;28;20224;-67
2022/07/04 04:55:59;;;;;;;6.45;2.63;;;15.80;99.30;;;;;;5043418;28;20373;-67
2022/07/04 04:58:25;;;;;;;11.20;3.30;;;15.80;99.00;;;;;;5043409;28;20029;-66
2022/07/04 05:00:51;;;;;;;9.80;3.70;;;15.80;98.90;;;;;;5044728;28;20040;-67
2022/07/04 05:03:17;;;;;;;6.35;3.33;;;15.70;99.20;;;;;;5043389;28;20131;-67
2022/07/04 05:05:43;;;;;;;11.68;3.85;;;15.70;99.50;;;;;;5044628;28;20014;-68
2022/07/04 05:08:09;;;;;;;11.73;3.67;;;15.80;99.60;;;;;;5026792;28;20358;-67
2022/07/04 05:10:35;;;;;;;5.82;3.45;;;15.80;99.30;;;;;;5044518;28;20029;-68
2022/07/04 05:13:00;;;;;;;10.85;3.70;;;15.80;99.20;;;;;;5044374;28;20314;-68
2022/07/04 05:15:26;;;;;;;10.07;3.90;;;15.90;99.10;;;;;;5042866;28;20040;-67
2022/07/04 05:17:53;;;;;;;6.57;3.47;;;16.00;99.10;;;;;;5043236;28;20300;-67
2022/07/04 05:20:18;;;;;;;9.35;3.95;;;16.10;98.60;;;;;;5043038;28;20037;-66
2022/07/04 05:22:44;;;;;;;8.55;3.72;;;16.10;98.60;;;;;;5044360;28;20021;-67
2022/07/04 05:25:09;;;;;;;11.82;4.00;;;16.00;98.80;;;;;;5043518;28;20269;-66
2022/07/04 05:27:37;;;;;;;12.18;3.90;;;16.00;98.80;;;;;;5043914;28;20022;-67
2022/07/04 05:30:03;;;;;;;13.73;4.57;;;16.00;99.00;;;;;;5043863;28;20080;-67
2022/07/04 05:32:29;;;;;;;7.93;3.90;;;16.00;99.00;;;;;;5043090;28;20021;-68
2022/07/04 05:34:56;;;;;;;11.57;4.05;;;16.00;99.20;;;;;;5042712;28;20036;-66
2022/07/04 05:37:21;;;;;;;10.13;3.78;;;16.00;99.10;;;;;;5043940;28;20253;-67
2022/07/04 05:39:47;;;;;;;8.35;3.50;;;16.10;99.10;;;;;;5075690;28;20079;-67
2022/07/04 05:42:13;;;;;;;19.35;3.95;;;16.10;99.10;;;;;;5044086;28;20045;-66
2022/07/04 05:44:38;;;;;;;10.77;4.05;;;16.10;99.00;;;;;;5042668;28;20316;-66
2022/07/04 05:47:04;;;;;;;10.55;3.13;;;16.10;99.10;;;;;;5043901;28;20025;-68
2022/07/04 05:49:30;;;;;;;8.52;3.40;;;16.10;99.00;;;;;;5042172;28;20028;-67
2022/07/04 05:51:55;;;;;;;10.43;3.50;;;16.00;99.00;;;;;;5043511;28;20109;-67
2022/07/04 05:54:21;;;;;;;16.80;3.53;;;16.00;99.20;;;;;;5043343;28;20029;-68
2022/07/04 05:56:47;;;;;;;7.70;3.03;;;16.00;99.40;;;;;;5042522;28;20096;-68
2022/07/04 05:59:12;;;;;;;8.23;2.60;;;16.10;99.50;;;;;;5043168;28;20026;-67
2022/07/04 06:01:39;;;;;;;16.55;2.92;;;16.20;98.80;;;;;;5075731;28;20087;-67
2022/07/04 06:04:05;;;;;;;9.50;2.67;;;16.30;98.60;;;;;;5043532;28;20092;-67
2022/07/04 06:06:31;;;;;;;4.90;2.30;;;16.40;98.70;;;;;;5043594;28;20327;-68
2022/07/04 06:08:57;;;;;;;13.77;2.55;;;16.40;98.20;;;;;;5043465;28;20067;-67
2022/07/04 06:11:23;;;;;;;11.38;2.75;;;16.40;98.10;;;;;;5043607;28;20017;-67
2022/07/04 06:13:49;;;;;;;9.20;2.65;;;16.50;98.30;;;;;;5043372;28;20343;-67
2022/07/04 06:16:16;;;;;;;7.45;2.38;;;16.60;98.20;;;;;;5040548;28;20033;-68
2022/07/04 06:18:42;;;;;;;7.10;1.90;;;16.80;98.00;;;;;;5075445;28;20039;-69
2022/07/04 06:21:08;;;;;;;13.27;2.63;;;16.90;97.70;;;;;;5075348;28;20028;-67
2022/07/04 06:23:33;;;;;;;10.55;1.55;;;17.10;97.20;;;;;;5043199;28;20030;-68
2022/07/04 06:25:59;;;;;;;9.30;2.00;;;17.30;96.80;;;;;;5042022;28;20075;-66
2022/07/04 06:28:25;;;;;;;7.82;2.00;;;17.30;96.20;;;;;;5043452;28;20025;-70
2022/07/04 06:30:51;;;;;;;7.82;1.50;;;17.40;96.00;;;;;;5043091;28;20022;-66
2022/07/04 06:33:18;;;;;;;4.18;1.33;;;17.50;95.90;;;;;;5043525;28;20025;-68
2022/07/04 06:35:44;;;;;;;4.38;1.23;;;17.40;95.80;;;;;;5042978;28;20032;-67
2022/07/04 06:38:12;;;;;;;5.85;1.25;;;17.40;95.70;;;;;;5043395;28;20028;-67
2022/07/04 06:40:39;;;;;;;4.90;1.00;;;17.50;95.50;;;;;;5041780;28;20185;-67
2022/07/04 06:43:05;;;;;;;3.60;1.25;;;17.40;95.50;;;;;;5042253;28;20035;-67
2022/07/04 06:45:33;;;;;;;6.85;1.17;;;17.40;95.80;;;;;;5042024;28;20037;-68
2022/07/04 06:48:00;;;;;;;4.68;1.13;;;17.40;95.70;;;;;;5042935;28;20101;-66
2022/07/04 06:50:25;;;;;;;5.65;1.60;;;17.40;95.90;;;;;;5041995;28;20029;-67
2022/07/04 06:52:51;;;;;;;4.60;1.13;;;17.40;96.20;;;;;;5043048;28;20328;-67
2022/07/04 06:55:17;;;;;;;7.97;1.83;;;17.60;96.00;;;;;;5042425;28;20032;-67
2022/07/04 06:57:43;;;;;;;9.05;1.13;;;17.70;95.20;;;;;;5042943;28;20068;-68
2022/07/04 07:00:10;;;;;;;3.60;0.90;;;17.80;94.40;;;;;;5042639;28;20025;-66
2022/07/04 07:02:36;;;;;;;5.75;0.70;;;17.90;94.70;;;;;;5043102;28;20021;-68
2022/07/04 07:05:03;;;;;;;4.10;0.80;;;17.90;94.30;;;;;;5041706;28;20185;-69
2022/07/04 07:07:29;;;;;;;4.97;0.90;;;18.00;94.20;;;;;;5042014;28;20033;-68
2022/07/04 07:09:55;;;;;;;3.55;0.90;;;18.10;94.30;;;;;;5040590;28;20197;-68
2022/07/04 07:12:21;;;;;;;2.67;0.70;;;18.10;94.10;;;;;;5044562;28;20028;-68
2022/07/04 07:14:48;;;;;;;6.28;0.57;;;18.00;94.00;;;;;;5044699;28;20021;-66
2022/07/04 07:17:15;;;;;;;4.93;0.68;;;18.00;94.20;;;;;;5044866;28;20096;-69
2022/07/04 07:19:40;;;;;;;5.82;0.70;;;18.00;94.10;;;;;;5043445;28;20093;-67
2022/07/04 07:22:06;;;;;;;5.82;0.80;;;17.90;94.00;;;;;;5045891;28;20049;-66
2022/07/04 07:24:32;;;;;;;6.40;1.50;;;17.90;94.20;;;;;;5042141;28;20029;-69
2022/07/04 07:26:57;;;;;;;3.28;0.60;;;17.80;94.30;;;;;;5065616;28;20093;-67
2022/07/04 07:29:23;;;;;;;8.38;0.70;;;17.80;94.20;;;;;;5048304;28;20026;-68
2022/07/04 07:31:49;;;;;;;8.38;0.88;;;17.80;93.90;;;;;;5047337;28;20220;-69
2022/07/04 07:34:15;;;;;;;4.55;0.57;;;17.90;93.40;;;;;;5043698;28;20056;-67
2022/07/04 07:36:41;;;;;;;4.70;0.70;;;17.90;92.80;;;;;;5045234;28;20284;-67
2022/07/04 07:39:07;;;;;;;6.13;0.98;;;18.10;92.70;;;;;;5045424;28;20049;-67
2022/07/04 07:41:32;;;;;;;4.85;0.80;;;18.30;92.80;;;;;;5044879;28;20076;-67
2022/07/04 07:43:58;;;;;;;4.47;0.60;;;18.50;92.40;;;;;;5045919;28;20025;-70
2022/07/04 07:46:24;;;;;;;5.35;0.73;;;18.50;91.40;;;;;;5043698;28;20034;-67
2022/07/04 07:48:49;;;;;;;3.45;0.60;;;18.50;92.10;;;;;;5045554;28;20022;-68
2022/07/04 07:51:18;;;;;;;1.98;0.50;;;18.40;91.40;;;;;;5044946;28;20374;-68
2022/07/04 07:53:44;;;;;;;5.75;0.80;;;18.40;91.90;;;;;;5060380;28;20029;-67
2022/07/04 07:56:09;;;;;;;1.58;0.40;;;18.30;91.50;;;;;;5043418;28;20025;-66
2022/07/04 07:58:35;;;;;;;2.53;0.50;;;18.20;91.60;;;;;;5060708;28;20071;-68
2022/07/04 08:01:04;;;;;;;1.85;0.50;;;18.10;91.30;;;;;;5045129;28;20116;-67
2022/07/04 08:06:16;;;;;;;3.78;0.70;;;18.00;91.50;;;;;;5043473;28;20236;-66
2022/07/04 08:08:43;;;;;;;3.17;0.82;;;18.00;91.30;;;;;;5044961;28;20036;-69
2022/07/04 08:11:10;;;;;;;6.43;0.82;;;18.00;91.70;;;;;;5043217;28;20182;-67
2022/07/04 08:13:36;;;;;;;3.67;0.57;;;18.00;92.10;;;;;;5044796;28;20022;-68
2022/07/04 08:16:02;;;;;;;2.67;0.70;;;18.00;91.80;;;;;;5060053;28;20403;-66
2022/07/04 08:18:28;;;;;;;3.05;1.00;;;17.80;92.20;;;;;;5058247;28;20376;-68
2022/07/04 08:20:54;;;;;;;6.88;0.50;;;17.60;92.80;;;;;;5043963;28;20021;-68
2022/07/04 08:23:19;;;;;;;3.70;0.77;;;17.60;92.60;;;;;;5044151;28;20025;-69
2022/07/04 08:25:45;;;;;;;4.72;0.70;;;17.50;92.90;;;;;;5059562;28;20025;-69
2022/07/04 08:28:11;;;;;;;9.25;0.60;;;17.50;93.10;;;;;;5059852;28;20068;-68
2022/07/04 08:30:37;;;;;;;4.15;0.60;;;17.40;93.10;;;;;;5060239;28;20025;-69
2022/07/04 08:33:03;;;;;;;9.55;0.95;;;17.40;93.20;;;;;;5044442;28;20036;-67
2022/07/04 08:35:28;;;;;;;7.15;0.90;;;17.50;93.50;;;;;;5043836;28;20124;-69
2022/07/04 08:37:55;;;;;;;5.80;1.00;;;17.50;93.80;;;;;;5042268;28;20223;-69
2022/07/04 08:40:23;;;;;;;5.63;1.08;;;17.50;94.10;;;;;;5042120;28;20309;-68
2022/07/04 08:42:49;;;;;;;7.47;1.00;;;17.40;94.30;;;;;;5058768;28;20033;-69
2022/07/04 08:45:16;;;;;;;2.92;0.88;;;17.30;94.80;;;;;;5044169;28;20014;-67
2022/07/04 08:47:43;;;;;;;7.95;1.00;;;17.20;95.60;;;;;;5043449;28;20048;-69
2022/07/04 08:50:14;;;;;;;6.50;1.10;;;17.30;96.00;;;;;;5043958;28;20028;-68
2022/07/04 08:52:44;;;;;;;9.05;1.85;;;17.30;95.90;;;;;;5041662;28;20041;-68
2022/07/04 09:00:43;;;;;;;5.78;1.27;;;17.50;95.20;;;;;;5042895;28;20116;-68
2022/07/04 09:03:09;;;;;;;7.53;1.60;;;17.40;95.20;;;;;;5042412;28;20088;-67
2022/07/04 09:05:36;;;;;;;10.32;1.50;;;17.60;95.00;;;;;;5058834;28;20025;-67
2022/07/04 09:08:03;;;;;;;8.27;1.67;;;17.80;94.80;;;;;;5043541;28;20032;-68
2022/07/04 09:10:29;;;;;;;7.75;1.75;;;18.10;94.10;;;;;;5042255;28;20021;-67
2022/07/04 09:12:55;;;;;;;10.45;2.05;;;18.20;93.90;;;;;;5058920;28;20029;-68
2022/07/04 09:15:21;;;;;;;5.90;1.15;;;18.40;93.80;;;;;;5058597;28;20017;-70
2022/07/04 09:17:47;;;;;;;5.88;1.52;;;18.80;93.60;;;;;;5041778;28;20063;-69
2022/07/04 09:20:18;;;;;;;5.82;1.10;;;19.20;92.90;;;;;;5042355;28;20029;-69
2022/07/04 09:22:44;;;;;;;8.40;1.48;;;19.40;92.00;;;;;;5043490;28;20025;-70
2022/07/04 09:25:12;;;;;;;7.00;1.38;;;19.30;91.80;;;;;;5041873;28;20041;-69
2022/07/04 09:27:42;;;;;;;4.20;1.60;;;19.30;92.40;;;;;;5058408;28;20018;-69
2022/07/04 09:30:08;;;;;;;4.43;1.08;;;19.10;92.00;;;;;;5058694;28;20025;-68
2022/07/04 09:32:48;;;;;;;6.30;1.17;;;19.10;92.60;;;;;;5041831;28;20041;-67
2022/07/04 09:35:18;;;;;;;10.98;1.83;;;19.00;92.50;;;;;;5056799;28;20021;-68
2022/07/04 09:37:48;;;;;;;9.07;0.90;;;18.80;93.20;;;;;;5041512;28;20123;-69
2022/07/04 09:40:30;;;;;;;9.70;1.77;;;18.90;93.20;;;;;;5041518;28;20018;-69
2022/07/04 09:42:58;;;;;;;14.98;2.20;;;18.90;93.20;;;;;;5040977;28;20072;-68
2022/07/04 09:45:25;;;;;;;7.32;1.50;;;18.90;93.30;;;;;;5056114;28;20036;-68
2022/07/04 09:47:59;;;;;;;11.75;1.20;;;19.10;93.10;;;;;;5040641;28;20029;-68
2022/07/04 09:50:28;;;;;;;7.55;1.00;;;19.20;92.60;;;;;;5040425;28;20293;-69
2022/07/04 09:52:57;;;;;;;3.78;0.88;;;19.40;92.40;;;;;;5042253;28;20108;-68
2022/07/04 09:55:26;;;;;;;7.32;1.50;;;19.50;92.30;;;;;;5040782;28;20276;-69
2022/07/04 09:57:54;;;;;;;5.60;1.00;;;19.60;92.30;;;;;;5041308;28;20022;-69
2022/07/04 10:00:26;;;;;;;6.50;1.27;;;19.70;91.40;;;;;;5042730;28;20403;-67
2022/07/04 10:02:53;;;;;;;7.72;1.27;;;19.60;91.40;;;;;;5042652;28;20021;-66
2022/07/04 10:05:22;;;;;;;9.75;1.38;;;19.50;91.80;;;;;;5042125;28;20309;-67
2022/07/04 10:07:48;;;;;;;2.33;0.90;;;19.40;91.90;;;;;;5041826;28;20185;-68
2022/07/04 10:10:34;;;;;;;6.70;1.15;;;19.40;91.80;;;;;;5039338;28;20029;-69
2022/07/04 10:13:07;;;;;;;8.82;1.20;;;19.40;91.80;;;;;;5039659;28;20029;-67
2022/07/04 10:15:36;;;;;;;7.65;1.35;;;19.60;91.80;;;;;;5040475;28;20029;-68
2022/07/04 10:18:04;;;;;;;4.93;1.23;;;20.00;91.20;;;;;;5040813;28;20033;-66
2022/07/04 10:20:30;;;;;;;9.18;1.52;;;20.20;91.00;;;;;;5040076;28;20017;-68
2022/07/04 10:22:56;;;;;;;6.03;1.30;;;20.40;90.60;;;;;;5042179;28;20080;-69
2022/07/04 10:25:22;;;;;;;4.85;1.08;;;20.30;90.50;;;;;;5040386;28;20017;-69
2022/07/04 10:27:51;;;;;;;6.40;1.60;;;20.20;90.80;;;;;;5041381;28;20045;-67
2022/07/04 10:30:24;;;;;;;4.63;1.20;;;19.90;90.90;;;;;;5042348;28;20347;-69
2022/07/04 10:32:51;;;;;;;6.00;1.10;;;19.70;90.80;;;;;;5041508;28;20110;-68
2022/07/04 10:35:17;;;;;;;3.65;1.08;;;19.50;90.00;;;;;;5042285;28;20084;-67
2022/07/04 10:38:04;;;;;;;7.43;1.55;;;19.40;90.40;;;;;;5041910;28;20247;-68
2022/07/04 10:40:51;;;;;;;4.05;1.23;;;19.30;90.60;;;;;;5055156;28;20247;-68
2022/07/04 10:43:37;;;;;;;4.20;0.80;;;19.40;89.50;;;;;;5057917;28;20067;-68
2022/07/04 10:46:23;;;;;;;2.67;0.70;;;19.50;87.20;;;;;;5045056;28;20021;-70
2022/07/04 10:48:51;;;;;;;2.08;0.75;;;19.60;86.10;;;;;;5061221;28;20054;-66
2022/07/04 10:51:33;;;;;;;2.88;0.88;;;19.60;87.30;;;;;;5045910;28;20065;-67
2022/07/04 10:54:02;;;;;;;2.15;0.70;;;19.90;87.00;;;;;;5045276;28;20094;-66
2022/07/04 10:56:36;;;;;;;1.92;0.70;;;20.10;86.40;;;;;;5061055;28;20036;-69
2022/07/04 10:59:10;;;;;;;3.95;0.90;;;20.10;85.10;;;;;;5073416;28;20033;-68
2022/07/04 11:01:36;;;;;;;3.03;0.90;;;19.80;86.40;;;;;;5044522;28;20017;-68
2022/07/04 11:04:02;;;;;;;1.05;0.80;;;19.60;87.50;;;;;;5044075;28;20067;-68
2022/07/04 11:06:54;;;;;;;2.30;0.70;;;19.40;88.00;;;;;;5046009;28;20021;-68
2022/07/04 11:09:23;;;;;;;3.40;0.88;;;19.20;88.50;;;;;;5044889;28;20021;-69
2022/07/04 11:12:06;;;;;;;1.50;0.50;;;19.30;87.60;;;;;;5028048;28;20018;-68
2022/07/04 11:14:43;;;;;;;4.15;0.90;;;19.40;87.10;;;;;;5058403;28;20362;-69
2022/07/04 11:17:19;;;;;;;2.50;0.63;;;19.60;86.90;;;;;;5060470;28;20025;-69
2022/07/04 11:19:45;;;;;;;1.50;0.63;;;20.00;84.10;;;;;;5043656;28;20331;-69
2022/07/04 11:22:11;;;;;;;0.93;0.75;;;19.80;83.70;;;;;;5043442;28;20048;-69
2022/07/04 11:24:38;;;;;;;1.48;0.65;;;19.60;84.20;;;;;;5045131;28;20036;-68
2022/07/04 11:27:08;;;;;;;4.90;0.82;;;19.70;85.90;;;;;;5044153;28;20029;-66
2022/07/04 11:29:34;;;;;;;1.38;0.80;;;19.90;84.50;;;;;;5045441;28;20070;-69
2022/07/04 11:32:00;;;;;;;3.10;0.70;;;20.00;83.80;;;;;;5045086;28;20032;-66
2022/07/04 11:34:33;;;;;;;3.28;0.60;;;20.20;84.90;;;;;;5045444;28;20044;-67
2022/07/04 11:37:01;;;;;;;2.75;0.95;;;20.30;83.50;;;;;;5076731;28;20089;-69
2022/07/04 11:39:27;;;;;;;3.80;0.60;;;20.40;83.40;;;;;;5043583;28;20036;-69
2022/07/04 11:47:43;;;;;;;1.20;0.80;;;20.50;81.50;;;;;;5044137;28;20258;-69
2022/07/04 11:50:11;;;;;;;1.65;0.50;;;20.30;82.90;;;;;;5043310;28;20324;-67
2022/07/04 11:52:43;;;;;;;5.53;0.88;;;20.30;81.70;;;;;;5026550;28;20040;-68
2022/07/04 11:55:11;;;;;;;4.75;0.75;;;20.20;82.00;;;;;;5040068;28;20321;-69
2022/07/04 11:57:39;;;;;;;2.03;0.90;;;20.60;81.60;;;;;;5039007;28;20096;-69
2022/07/04 12:00:10;;;;;;;2.70;0.80;;;20.90;79.80;;;;;;5056996;28;20045;-69
2022/07/04 12:02:37;;;;;;;3.42;1.13;;;20.80;80.50;;;;;;5041163;28;20033;-68
2022/07/04 12:05:05;;;;;;;2.70;0.75;;;20.90;80.20;;;;;;5057384;28;20087;-69
2022/07/04 12:07:33;;;;;;;1.58;0.70;;;21.00;79.90;;;;;;5043316;28;20080;-71
2022/07/04 12:10:09;;;;;;;0.95;0.60;;;20.90;80.80;;;;;;5043191;28;20331;-71
2022/07/04 12:12:35;;;;;;;1.40;0.63;;;20.80;80.90;;;;;;5044812;28;20076;-70
2022/07/04 12:15:07;;;;;;;1.00;0.90;;;20.80;81.30;;;;;;5026982;28;20317;-72
2022/07/04 12:17:38;;;;;;;5.80;1.13;;;20.90;81.70;;;;;;5044370;28;20025;-69
2022/07/04 12:20:18;;;;;;;1.10;0.70;;;20.60;82.10;;;;;;5041780;28;20044;-71
2022/07/04 12:22:50;;;;;;;2.67;0.75;;;20.50;82.40;;;;;;5041815;28;20021;-69
2022/07/04 12:25:29;;;;;;;4.57;1.02;;;20.50;83.50;;;;;;5043539;28;20071;-71
2022/07/04 12:27:58;;;;;;;1.02;0.70;;;20.60;82.50;;;;;;5042196;28;20291;-69
2022/07/04 12:30:25;;;;;;;2.85;0.80;;;20.40;82.30;;;;;;5041368;28;20031;-68
2022/07/04 12:32:53;;;;;;;1.77;0.90;;;20.10;82.40;;;;;;5058410;28;20029;-69
2022/07/04 12:35:44;;;;;;;1.95;1.17;;;20.00;82.60;;;;;;5043648;28;20033;-68
2022/07/04 12:38:32;;;;;;;1.13;0.70;;;19.90;83.60;;;;;;5055293;28;20076;-68
2022/07/04 12:41:02;;;;;;;2.08;0.80;;;19.80;83.70;;;;;;5055989;28;20021;-70
2022/07/04 12:43:50;;;;;;;2.60;0.85;;;19.80;84.80;;;;;;5058769;28;20328;-70
2022/07/04 12:46:32;;;;;;;3.72;0.82;;;19.90;84.20;;;;;;5041728;28;20312;-70
2022/07/04 12:49:00;;;;;;;0.90;0.47;;;19.90;84.70;;;;;;5043066;28;20041;-68
2022/07/04 12:51:31;;;;;;;0.80;0.73;;;20.10;83.20;;;;;;5058214;28;20057;-69
2022/07/04 12:53:58;;;;;;;4.68;0.82;;;20.20;84.10;;;;;;5040890;28;20105;-70
2022/07/04 12:56:33;;;;;;;1.15;0.77;;;20.00;83.70;;;;;;5041730;28;20093;-69
2022/07/04 12:59:00;;;;;;;3.22;0.90;;;19.90;84.20;;;;;;5041951;28;20025;-68
2022/07/04 13:01:26;;;;;;;1.42;0.52;;;19.90;83.60;;;;;;5057228;28;20084;-68
2022/07/04 13:03:52;;;;;;;2.20;0.70;;;19.90;83.90;;;;;;5057066;28;20063;-68
2022/07/04 13:06:19;;;;;;;0.55;0.55;;;19.80;84.40;;;;;;5042485;28;20377;-68
2022/07/04 13:08:47;;;;;;;1.17;0.68;;;19.90;83.20;;;;;;5040559;28;20025;-69